Time;durP1;ratioP1;P1;durP2;ratioP2;P2;SDS_P1;SDS_P2;PMS_P1;PMS_P2;Temp;Humidity;BMP_temperature;BMP_pressure;BME280_temperature;BME280_humidity;BME280_pressure;Samples;Min_cycle;Max_cycle;Signal;HPM_P1;HPM_P2
2023/09/17 00:02:13;;;;;;;15.05;7.72;;;;;;;7.63;nan;100636.38;5115689;27;20966;-73
2023/09/17 00:04:38;;;;;;;14.82;7.53;;;;;;;7.62;nan;100622.25;5097803;27;20065;-73
2023/09/17 00:07:04;;;;;;;14.32;7.85;;;;;;;7.62;nan;100626.69;5095416;27;20042;-73
2023/09/17 00:09:29;;;;;;;13.13;7.47;;;;;;;7.57;nan;100650.75;5096684;27;20050;-74
2023/09/17 00:11:54;;;;;;;12.00;6.63;;;;;;;7.58;nan;100630.41;5115909;27;20043;-72
2023/09/17 00:14:20;;;;;;;14.82;7.22;;;;;;;7.57;nan;100624.22;5095314;27;20058;-72
2023/09/17 00:16:46;;;;;;;13.38;7.55;;;;;;;7.54;nan;100650.91;5116064;27;20041;-73
2023/09/17 00:19:11;;;;;;;12.35;6.85;;;;;;;7.55;nan;100626.13;5098760;27;20042;-74
2023/09/17 00:21:36;;;;;;;13.88;6.85;;;;;;;7.53;nan;100627.97;5115438;27;20038;-69
2023/09/17 00:24:02;;;;;;;12.48;6.72;;;;;;;7.53;nan;100632.41;5094977;27;20042;-70
2023/09/17 00:26:27;;;;;;;13.52;7.00;;;;;;;7.50;nan;100632.53;5115498;27;20039;-72
2023/09/17 00:28:52;;;;;;;14.25;5.82;;;;;;;7.50;nan;100633.41;5096673;27;20064;-72
2023/09/17 00:31:18;;;;;;;14.48;6.68;;;;;;;7.49;nan;100636.13;5112375;27;20496;-71
2023/09/17 00:33:45;;;;;;;20.52;7.88;;;;;;;7.49;nan;100636.13;5061312;27;20050;-76
2023/09/17 00:36:10;;;;;;;13.30;7.25;;;;;;;7.47;nan;100630.00;5096135;27;20039;-72
2023/09/17 00:38:35;;;;;;;15.52;7.00;;;;;;;7.45;nan;100632.72;5061474;27;20420;-71
2023/09/17 00:41:00;;;;;;;16.60;7.28;;;;;;;7.45;nan;100634.53;5079729;27;20051;-69
2023/09/17 00:43:26;;;;;;;14.98;7.20;;;;;;;7.45;nan;100629.22;5115582;27;20043;-71
2023/09/17 00:45:51;;;;;;;14.18;7.50;;;;;;;7.43;nan;100631.94;5079521;27;20043;-71
2023/09/17 00:48:16;;;;;;;19.15;7.05;;;;;;;7.42;nan;100635.53;5115602;27;20053;-70
2023/09/17 00:50:42;;;;;;;15.13;7.53;;;;;;;7.37;nan;100668.47;5097269;27;20409;-69
2023/09/17 00:53:08;;;;;;;9.88;6.43;;;;;;;7.40;nan;100637.38;5114534;27;20409;-69
2023/09/17 00:55:33;;;;;;;13.00;7.20;;;;;;;7.40;nan;100633.84;5109903;27;20382;-70
2023/09/17 00:58:00;;;;;;;14.75;6.25;;;;;;;7.38;nan;100599.44;5079181;27;20047;-69
2023/09/17 01:00:26;;;;;;;16.17;7.15;;;;;;;7.37;nan;100634.84;5096764;27;20043;-71
2023/09/17 01:02:54;;;;;;;12.77;7.45;;;;;;;7.37;nan;100626.88;5113987;27;20043;-68
2023/09/17 01:05:19;;;;;;;10.85;6.65;;;;;;;7.33;nan;100645.66;5082582;27;20054;-69
2023/09/17 01:07:45;;;;;;;13.82;6.68;;;;;;;7.32;nan;100655.41;5116774;27;20054;-68
2023/09/17 01:10:11;;;;;;;10.38;6.30;;;;;;;7.33;nan;100621.78;5098633;27;20046;-69
2023/09/17 01:12:38;;;;;;;14.50;6.63;;;;;;;7.32;nan;100625.38;5097100;28;20053;-72
2023/09/17 01:15:06;;;;;;;14.18;6.63;;;;;;;7.33;nan;100620.00;5090629;27;20050;-71
2023/09/17 01:17:31;;;;;;;10.45;6.68;;;;;;;7.29;nan;100613.09;5085718;27;20042;-71
2023/09/17 01:19:57;;;;;;;12.65;6.20;;;;;;;7.32;nan;100628.88;5094943;27;20046;-71
2023/09/17 01:22:30;;;;;;;14.40;7.65;;;;;;;7.32;nan;100623.59;5113630;27;20039;-73
2023/09/17 01:25:35;;;;;;;13.50;7.07;;;;;;;7.36;nan;100619.84;5076478;28;20038;-68
2023/09/17 01:28:02;;;;;;;11.63;6.22;;;;;;;7.27;nan;100626.41;5075549;27;20524;-68
2023/09/17 01:30:28;;;;;;;14.68;7.13;;;;;;;7.24;nan;100629.19;5114747;27;20526;-68
2023/09/17 01:32:53;;;;;;;12.52;7.15;;;;;;;7.23;nan;100618.66;5097099;27;20050;-69
2023/09/17 01:35:20;;;;;;;11.40;7.20;;;;;;;7.21;nan;100620.53;5097015;27;20042;-69
2023/09/17 01:37:56;;;;;;;11.63;6.95;;;;;;;7.20;nan;100624.09;5096863;27;20062;-67
2023/09/17 01:40:23;;;;;;;12.13;6.75;;;;;;;7.12;nan;100616.44;5094435;27;20045;-70
2023/09/17 01:42:50;;;;;;;14.05;6.93;;;;;;;7.09;nan;100613.94;5094663;27;20042;-69
2023/09/17 01:45:18;;;;;;;15.20;6.68;;;;;;;7.08;nan;100657.28;5115172;27;20396;-68
2023/09/17 01:47:46;;;;;;;11.10;6.30;;;;;;;7.10;nan;100622.75;5079682;27;20046;-68
2023/09/17 01:50:15;;;;;;;10.30;6.20;;;;;;;7.08;nan;100614.88;5096974;27;20030;-69
2023/09/17 01:52:40;;;;;;;15.65;7.50;;;;;;;7.06;nan;100627.31;5118546;27;20042;-69
2023/09/17 01:55:08;;;;;;;10.85;6.30;;;;;;;7.07;nan;100622.88;5065614;27;20054;-69
2023/09/17 01:57:33;;;;;;;12.15;6.30;;;;;;;7.06;nan;100615.84;5100155;27;20046;-69
2023/09/17 01:59:59;;;;;;;12.23;6.57;;;;;;;7.06;nan;100616.72;5065765;27;20050;-68
2023/09/17 02:02:24;;;;;;;14.32;6.55;;;;;;;7.05;nan;100617.63;5100225;27;20046;-68
2023/09/17 02:04:49;;;;;;;11.90;6.72;;;;;;;7.05;nan;100624.72;5117740;27;20057;-68
2023/09/17 02:07:17;;;;;;;13.27;6.78;;;;;;;7.05;nan;100624.72;5100120;27;20057;-68
2023/09/17 02:09:43;;;;;;;10.18;6.43;;;;;;;7.02;nan;100624.84;5101836;27;20050;-68
2023/09/17 02:12:09;;;;;;;11.93;6.53;;;;;;;7.01;nan;100639.03;5101669;27;20057;-68
2023/09/17 02:14:34;;;;;;;13.25;6.65;;;;;;;7.01;nan;100626.63;5085206;27;20346;-73
2023/09/17 02:17:00;;;;;;;12.63;7.32;;;;;;;7.00;nan;100629.38;5101187;27;20039;-73
2023/09/17 02:19:25;;;;;;;13.90;7.57;;;;;;;6.99;nan;100638.25;5078644;27;20097;-73
2023/09/17 02:21:52;;;;;;;12.13;6.78;;;;;;;6.91;nan;100639.41;5098991;27;20058;-72
2023/09/17 02:24:19;;;;;;;14.75;7.15;;;;;;;6.95;nan;100634.00;5082803;27;20043;-72
2023/09/17 02:26:44;;;;;;;13.40;7.15;;;;;;;6.91;nan;100626.16;5099370;27;20050;-72
2023/09/17 02:29:10;;;;;;;17.77;7.50;;;;;;;6.89;nan;100646.56;5099830;27;20047;-72
2023/09/17 02:31:35;;;;;;;12.50;6.28;;;;;;;6.90;nan;100626.22;5080354;27;20055;-73
2023/09/17 02:34:00;;;;;;;12.02;7.03;;;;;;;6.88;nan;100628.91;5099553;27;20053;-71
2023/09/17 02:36:25;;;;;;;9.90;6.22;;;;;;;6.86;nan;100624.63;5071845;27;20057;-73
2023/09/17 02:38:51;;;;;;;13.75;7.53;;;;;;;6.85;nan;100638.81;5097220;27;20042;-73
2023/09/17 02:41:17;;;;;;;11.07;6.07;;;;;;;6.86;nan;100635.22;5096393;27;20738;-74
2023/09/17 02:43:42;;;;;;;11.40;6.68;;;;;;;6.85;nan;100633.50;5099401;27;20062;-74
2023/09/17 02:46:08;;;;;;;13.30;6.90;;;;;;;6.82;nan;100665.41;5092055;27;20052;-73
2023/09/17 02:48:33;;;;;;;14.65;6.70;;;;;;;6.83;nan;100640.66;5081941;27;20050;-76
2023/09/17 02:51:01;;;;;;;12.27;6.65;;;;;;;6.81;nan;100659.25;5066691;27;20131;-76
2023/09/17 02:53:26;;;;;;;12.68;6.40;;;;;;;6.80;nan;100640.75;5120154;27;20050;-77
2023/09/17 02:55:52;;;;;;;10.05;6.47;;;;;;;6.82;nan;100638.91;5083000;27;20046;-76
2023/09/17 02:58:17;;;;;;;12.35;6.78;;;;;;;6.79;nan;100666.41;5119302;27;20039;-76
2023/09/17 03:00:44;;;;;;;13.45;6.80;;;;;;;6.80;nan;100641.63;5099338;27;20030;-75
2023/09/17 03:03:10;;;;;;;14.38;7.60;;;;;;;6.78;nan;100654.06;5075847;27;20101;-74
2023/09/17 03:05:37;;;;;;;10.80;7.05;;;;;;;6.76;nan;100655.94;5081265;27;20046;-75
2023/09/17 03:08:03;;;;;;;16.13;7.35;;;;;;;6.75;nan;100646.25;5117617;27;20054;-74
2023/09/17 03:10:28;;;;;;;11.27;6.45;;;;;;;6.75;nan;100658.66;5081561;27;20046;-74
2023/09/17 03:12:54;;;;;;;13.85;7.47;;;;;;;6.74;nan;100647.19;5078702;27;20058;-72
2023/09/17 03:15:20;;;;;;;10.05;6.53;;;;;;;6.75;nan;100675.41;5098277;27;20042;-76
2023/09/17 03:17:45;;;;;;;15.07;8.02;;;;;;;6.77;nan;100656.81;5098941;27;20040;-73
2023/09/17 03:20:17;;;;;;;12.48;6.65;;;;;;;6.78;nan;100655.84;5077565;27;20047;-73
2023/09/17 03:22:43;;;;;;;12.30;6.78;;;;;;;6.81;nan;100653.97;5078679;27;20065;-75
2023/09/17 03:25:11;;;;;;;13.43;7.45;;;;;;;6.90;nan;100648.28;5078877;27;20051;-76
2023/09/17 03:27:38;;;;;;;18.73;7.07;;;;;;;6.98;nan;100661.25;5095870;27;20053;-74
2023/09/17 03:30:05;;;;;;;10.93;6.07;;;;;;;7.09;nan;100658.16;5098964;27;20054;-75
2023/09/17 03:32:31;;;;;;;11.65;7.07;;;;;;;7.20;nan;100683.31;5082198;27;20043;-74
2023/09/17 03:34:57;;;;;;;11.82;6.82;;;;;;;7.32;nan;100655.41;5100769;27;20049;-75
2023/09/17 03:37:23;;;;;;;13.63;8.13;;;;;;;7.43;nan;100658.47;5082541;27;20045;-75
2023/09/17 03:40:10;;;;;;;11.88;6.50;;;;;;;7.63;nan;100666.44;5098630;27;20416;-73
2023/09/17 03:42:38;;;;;;;11.18;6.28;;;;;;;7.69;nan;100660.00;5099215;27;20042;-74
2023/09/17 03:45:06;;;;;;;11.02;7.28;;;;;;;7.81;nan;100658.59;5081657;27;20534;-74
2023/09/17 03:47:32;;;;;;;15.35;7.65;;;;;;;7.90;nan;100653.72;5117427;27;20039;-74
2023/09/17 03:49:59;;;;;;;15.75;7.20;;;;;;;8.04;nan;100655.78;5082305;27;20054;-74
2023/09/17 03:52:25;;;;;;;11.15;6.20;;;;;;;8.13;nan;100724.41;5117408;27;20049;-74
2023/09/17 03:54:52;;;;;;;13.15;6.65;;;;;;;8.23;nan;100651.38;5097695;27;20056;-74
2023/09/17 03:57:17;;;;;;;9.90;6.28;;;;;;;8.34;nan;100659.75;5098615;27;20046;-74
2023/09/17 03:59:42;;;;;;;15.40;6.57;;;;;;;8.46;nan;100660.13;5081022;27;20058;-74
2023/09/17 04:02:07;;;;;;;12.05;7.35;;;;;;;8.57;nan;100656.03;5098960;27;20046;-74
2023/09/17 04:04:33;;;;;;;14.30;7.28;;;;;;;8.68;nan;100647.53;5064665;27;20047;-74
2023/09/17 04:06:59;;;;;;;13.00;7.68;;;;;;;8.81;nan;100653.09;5080988;27;20057;-75
2023/09/17 04:09:25;;;;;;;12.55;7.30;;;;;;;8.97;nan;100649.63;5098599;27;20061;-75
2023/09/17 04:11:50;;;;;;;11.15;6.32;;;;;;;9.14;nan;100655.94;5098856;27;20043;-75
2023/09/17 04:14:15;;;;;;;14.50;7.07;;;;;;;9.31;nan;100654.16;5116690;27;20054;-75
2023/09/17 04:16:40;;;;;;;15.88;7.53;;;;;;;9.51;nan;100661.13;5098130;27;20050;-74
2023/09/17 04:19:05;;;;;;;11.82;7.00;;;;;;;9.73;nan;100651.09;5080343;27;20058;-74
2023/09/17 04:21:30;;;;;;;13.60;6.40;;;;;;;9.92;nan;100645.69;5116181;27;20038;-74
2023/09/17 04:23:56;;;;;;;17.67;7.45;;;;;;;10.06;nan;100647.59;5080158;27;20055;-74
2023/09/17 04:26:24;;;;;;;17.25;7.93;;;;;;;10.15;nan;100641.81;5097580;27;20039;-75
2023/09/17 04:28:50;;;;;;;15.32;7.28;;;;;;;10.23;nan;100644.94;5097355;27;20552;-75
2023/09/17 04:31:16;;;;;;;12.88;6.65;;;;;;;10.28;nan;100644.66;5080231;27;20039;-75
2023/09/17 04:33:41;;;;;;;14.88;7.38;;;;;;;10.36;nan;100650.47;5097688;27;20050;-74
2023/09/17 04:36:06;;;;;;;20.40;8.60;;;;;;;10.45;nan;100647.28;5097433;27;20031;-74
2023/09/17 04:38:32;;;;;;;16.35;7.97;;;;;;;10.61;nan;100639.31;5097042;27;20065;-74
2023/09/17 04:40:57;;;;;;;23.15;8.35;;;;;;;10.79;nan;100646.28;5097461;27;20064;-73
2023/09/17 04:43:23;;;;;;;18.75;8.30;;;;;;;10.98;nan;100654.94;5097351;27;20409;-74
2023/09/17 04:45:49;;;;;;;14.65;8.02;;;;;;;11.15;nan;100651.31;5096951;27;20045;-73
2023/09/17 04:48:22;;;;;;;19.08;8.68;;;;;;;11.29;nan;100654.88;5063673;27;20412;-73
2023/09/17 04:50:48;;;;;;;18.30;8.40;;;;;;;11.47;nan;100644.97;5096904;27;20042;-73
2023/09/17 04:53:14;;;;;;;20.30;8.27;;;;;;;11.69;nan;100647.19;5097297;27;20054;-73
2023/09/17 04:55:44;;;;;;;14.30;8.23;;;;;;;11.93;nan;100661.78;5097254;27;20046;-73
2023/09/17 04:58:09;;;;;;;16.30;9.00;;;;;;;12.15;nan;100642.63;5097409;27;20412;-73
2023/09/17 05:00:34;;;;;;;24.83;8.73;;;;;;;12.34;nan;100650.34;5097219;27;20046;-73
2023/09/17 05:03:01;;;;;;;13.63;8.95;;;;;;;12.50;nan;100656.47;5097601;27;20067;-75
2023/09/17 05:05:26;;;;;;;21.95;9.63;;;;;;;12.66;nan;100635.78;5097479;27;20039;-76
2023/09/17 05:07:52;;;;;;;20.90;10.02;;;;;;;12.75;nan;100649.53;5080109;27;20051;-76
2023/09/17 05:10:18;;;;;;;16.35;10.43;;;;;;;12.90;nan;100600.34;5107420;27;20038;-77
2023/09/17 05:12:44;;;;;;;14.25;9.80;;;;;;;13.13;nan;100629.13;5098017;27;20046;-74
2023/09/17 05:15:11;;;;;;;16.13;11.18;;;;;;;13.37;nan;100632.91;5080060;27;20045;-74
2023/09/17 05:17:36;;;;;;;20.75;10.70;;;;;;;13.73;nan;100634.03;5116089;27;20490;-78
2023/09/17 05:20:06;;;;;;;22.42;11.68;;;;;;;13.95;nan;100661.06;5098035;27;20042;-75
2023/09/17 05:22:32;;;;;;;19.60;11.07;;;;;;;14.09;nan;100652.09;5098109;27;20056;-76
2023/09/17 05:24:57;;;;;;;15.82;10.50;;;;;;;14.19;nan;100645.09;5097417;27;20043;-79
2023/09/17 05:27:24;;;;;;;16.90;10.88;;;;;;;14.22;nan;100652.09;5083319;27;20054;-78
2023/09/17 05:29:50;;;;;;;21.20;11.10;;;;;;;14.62;nan;100647.44;5080119;27;20457;-77
2023/09/17 05:32:15;;;;;;;18.15;10.48;;;;;;;15.16;nan;100646.06;5063246;27;20055;-76
2023/09/17 05:34:42;;;;;;;19.75;10.93;;;;;;;15.66;nan;100648.63;5080646;27;20039;-75
2023/09/17 05:37:07;;;;;;;17.40;11.15;;;;;;;16.52;nan;100633.69;5080455;27;20405;-76
2023/09/17 05:39:33;;;;;;;21.75;12.18;;;;;;;16.95;nan;100587.97;5091067;27;20057;-76
2023/09/17 05:41:58;;;;;;;20.83;12.80;;;;;;;17.18;nan;100636.41;5100035;27;20624;-77
2023/09/17 05:44:24;;;;;;;19.85;11.73;;;;;;;17.82;nan;100631.88;5100861;27;20046;-76
2023/09/17 05:46:50;;;;;;;18.25;13.15;;;;;;;18.79;nan;100616.97;5100504;27;20038;-74
2023/09/17 05:49:15;;;;;;;19.08;12.13;;;;;;;19.88;nan;100617.59;5100085;27;20489;-72
2023/09/17 05:51:40;;;;;;;17.65;11.07;;;;;;;20.61;nan;100609.69;5100180;27;20639;-73
2023/09/17 05:54:06;;;;;;;20.95;11.50;;;;;;;20.66;nan;100629.91;5065822;27;20046;-72
2023/09/17 05:56:32;;;;;;;16.48;10.30;;;;;;;21.26;nan;100605.00;5100499;27;20042;-74
2023/09/17 05:58:58;;;;;;;15.85;10.43;;;;;;;22.04;nan;100606.00;5100284;27;20038;-73
2023/09/17 06:01:23;;;;;;;16.35;11.25;;;;;;;22.34;nan;100607.41;5100160;27;20030;-73
2023/09/17 06:03:48;;;;;;;14.98;10.80;;;;;;;22.24;nan;100598.47;5100090;27;20440;-73
2023/09/17 06:06:14;;;;;;;20.30;11.23;;;;;;;22.30;nan;100600.56;5099934;27;20390;-73
2023/09/17 06:08:41;;;;;;;18.08;10.60;;;;;;;22.31;nan;100614.00;5099309;27;20050;-74
2023/09/17 06:11:07;;;;;;;17.52;9.73;;;;;;;22.69;nan;100601.75;5081264;27;20043;-73
2023/09/17 06:13:33;;;;;;;17.98;9.20;;;;;;;22.97;nan;100599.69;5100267;27;20035;-72
2023/09/17 06:15:58;;;;;;;11.25;8.57;;;;;;;22.85;nan;100598.28;5118726;27;20443;-74
2023/09/17 06:18:23;;;;;;;12.70;7.90;;;;;;;23.30;nan;100600.59;5118278;27;20031;-74
2023/09/17 06:20:50;;;;;;;10.80;8.13;;;;;;;24.41;nan;100609.03;5065460;27;20051;-73
2023/09/17 06:23:15;;;;;;;10.05;7.35;;;;;;;25.37;nan;100592.38;5118737;27;20069;-75
2023/09/17 06:25:40;;;;;;;10.80;7.40;;;;;;;26.27;nan;100596.88;5084613;27;20500;-74
2023/09/17 06:28:06;;;;;;;9.23;6.15;;;;;;;27.06;nan;100603.41;5065874;27;20524;-74
2023/09/17 06:30:32;;;;;;;9.75;6.50;;;;;;;27.60;nan;100599.34;5119734;27;20046;-74
2023/09/17 06:32:57;;;;;;;13.80;6.32;;;;;;;28.00;nan;100600.50;5100633;27;20046;-75
2023/09/17 06:35:23;;;;;;;10.30;7.03;;;;;;;27.04;nan;100589.06;5101342;27;20440;-74
2023/09/17 06:37:49;;;;;;;14.15;6.53;;;;;;;26.37;nan;100597.44;5067104;27;20054;-75
2023/09/17 06:40:15;;;;;;;11.93;7.13;;;;;;;26.34;nan;100597.81;5100876;27;20052;-75
2023/09/17 06:42:42;;;;;;;10.48;7.82;;;;;;;26.61;nan;100588.09;5101305;27;20034;-75
2023/09/17 06:45:08;;;;;;;11.57;7.55;;;;;;;26.68;nan;100607.31;5099924;27;20061;-75
2023/09/17 06:47:34;;;;;;;12.70;7.88;;;;;;;26.94;nan;100588.53;5118819;27;20046;-76
2023/09/17 06:49:59;;;;;;;11.45;7.70;;;;;;;27.31;nan;100584.72;5119820;27;20477;-76
2023/09/17 06:52:27;;;;;;;10.65;7.05;;;;;;;28.02;nan;100581.97;5082716;27;20046;-75
2023/09/17 06:54:53;;;;;;;8.98;6.40;;;;;;;28.92;nan;100590.13;5099581;27;20167;-75
2023/09/17 06:57:18;;;;;;;9.73;6.40;;;;;;;29.18;nan;100601.19;5082553;27;20516;-76
2023/09/17 06:59:43;;;;;;;11.75;6.55;;;;;;;29.27;nan;100572.47;5083211;27;20050;-75
2023/09/17 07:02:09;;;;;;;6.82;5.63;;;;;;;29.66;nan;100581.84;5086873;27;20038;-75
2023/09/17 07:04:34;;;;;;;7.13;5.80;;;;;;;30.68;nan;100571.13;5119609;27;20508;-75
2023/09/17 07:07:00;;;;;;;7.20;5.40;;;;;;;31.24;nan;100569.59;5099776;27;20049;-75
2023/09/17 07:09:31;;;;;;;7.75;6.05;;;;;;;30.89;nan;100567.22;5083375;27;20054;-74
2023/09/17 07:11:56;;;;;;;7.55;5.63;;;;;;;30.86;nan;100566.81;5099163;27;20054;-74
2023/09/17 07:14:21;;;;;;;8.45;6.25;;;;;;;31.74;nan;100562.22;5118307;27;20038;-73
2023/09/17 07:16:46;;;;;;;8.50;6.15;;;;;;;32.60;nan;100564.97;5099011;27;20400;-75
2023/09/17 07:19:12;;;;;;;9.30;6.75;;;;;;;32.86;nan;100558.28;5099145;27;20488;-75
2023/09/17 07:21:37;;;;;;;9.38;6.10;;;;;;;33.15;nan;100554.69;5103705;27;20512;-75
2023/09/17 07:24:03;;;;;;;8.85;5.70;;;;;;;33.87;nan;100544.41;5120777;27;20542;-74
2023/09/17 07:26:29;;;;;;;12.05;6.32;;;;;;;34.86;nan;100544.41;5098684;27;20047;-75
2023/09/17 07:28:54;;;;;;;10.75;5.53;;;;;;;35.78;nan;100544.19;5099649;27;20484;-75
2023/09/17 07:31:19;;;;;;;7.32;5.45;;;;;;;36.05;nan;100544.28;5117842;27;20047;-78
2023/09/17 07:33:44;;;;;;;7.95;5.70;;;;;;;35.93;nan;100494.44;5098952;27;20051;-77
2023/09/17 07:36:11;;;;;;;6.97;5.78;;;;;;;36.17;nan;100536.69;5098177;27;20053;-74
2023/09/17 07:38:36;;;;;;;7.78;6.40;;;;;;;36.85;nan;100550.16;5098250;27;20043;-75
2023/09/17 07:41:02;;;;;;;7.97;6.00;;;;;;;36.92;nan;100539.66;5126103;27;20547;-77
2023/09/17 07:43:28;;;;;;;6.82;6.10;;;;;;;36.43;nan;100535.16;5111560;27;20058;-76
2023/09/17 07:45:53;;;;;;;6.40;5.75;;;;;;;36.32;nan;100521.13;5129309;27;20492;-76
2023/09/17 07:48:20;;;;;;;6.78;5.70;;;;;;;36.56;nan;100535.59;5102311;27;20077;-77
2023/09/17 07:50:54;;;;;;;6.68;5.88;;;;;;;37.39;nan;100527.91;5119527;27;20038;-77
2023/09/17 07:53:20;;;;;;;6.38;5.75;;;;;;;36.96;nan;100518.59;5118669;27;20042;-76
2023/09/17 07:55:45;;;;;;;6.70;6.10;;;;;;;35.25;nan;100513.03;5118241;27;20442;-78
2023/09/17 07:58:10;;;;;;;6.35;5.00;;;;;;;33.80;nan;100506.88;5117623;27;20049;-76
2023/09/17 08:00:35;;;;;;;5.70;4.78;;;;;;;32.53;nan;100503.47;5117647;27;20045;-77
2023/09/17 08:03:01;;;;;;;6.88;5.07;;;;;;;33.26;nan;100497.78;5098310;27;20057;-77
2023/09/17 08:05:27;;;;;;;6.03;5.00;;;;;;;34.69;nan;100502.75;5116788;27;20390;-77
2023/09/17 08:07:52;;;;;;;7.22;5.85;;;;;;;34.06;nan;100511.09;5098163;27;20043;-76
2023/09/17 08:10:17;;;;;;;10.15;7.25;;;;;;;33.96;nan;100500.63;5118290;27;20404;-75
2023/09/17 08:12:42;;;;;;;8.30;5.35;;;;;;;34.09;nan;100480.13;5117335;27;20035;-76
2023/09/17 08:15:08;;;;;;;10.40;6.28;;;;;;;34.91;nan;100483.53;5117541;27;20046;-78
2023/09/17 08:17:33;;;;;;;7.57;6.03;;;;;;;35.98;nan;100477.88;5118303;27;20524;-76
2023/09/17 08:19:58;;;;;;;10.27;6.45;;;;;;;37.09;nan;100501.47;5116951;27;20480;-76
2023/09/17 08:22:27;;;;;;;6.30;5.70;;;;;;;37.58;nan;100465.22;5098722;27;20061;-75
2023/09/17 08:25:12;;;;;;;10.02;6.38;;;;;;;38.90;nan;100470.59;5110707;27;20049;-77
2023/09/17 08:27:57;;;;;;;9.48;6.78;;;;;;;39.44;nan;100476.53;5126151;27;20054;-76
2023/09/17 08:30:42;;;;;;;7.47;6.57;;;;;;;40.53;nan;100461.72;5101602;27;20052;-78
2023/09/17 08:33:27;;;;;;;10.00;7.28;;;;;;;40.99;nan;100467.06;5085979;27;20049;-79
2023/09/17 08:36:13;;;;;;;10.50;6.38;;;;;;;38.85;nan;100463.06;5118302;27;20062;-77
2023/09/17 08:38:38;;;;;;;7.07;6.38;;;;;;;37.54;nan;100449.31;5098734;27;20034;-77
2023/09/17 08:41:06;;;;;;;10.48;6.43;;;;;;;36.69;nan;100484.38;5116819;27;20165;-77
2023/09/17 08:43:32;;;;;;;9.55;6.63;;;;;;;34.50;nan;100451.44;5118229;27;20041;-77
2023/09/17 08:45:59;;;;;;;8.90;6.43;;;;;;;33.26;nan;100453.56;5118927;27;20051;-80
2023/09/17 08:48:26;;;;;;;8.43;6.50;;;;;;;33.47;nan;100450.22;5102575;27;20049;-78
2023/09/17 08:50:53;;;;;;;7.80;6.43;;;;;;;33.86;nan;100442.31;5105155;27;20045;-79
2023/09/17 08:53:27;;;;;;;10.95;6.40;;;;;;;34.12;nan;100440.91;5126107;27;20049;-79
2023/09/17 08:55:57;;;;;;;7.43;6.15;;;;;;;34.75;nan;100440.88;5126338;27;20065;-78
2023/09/17 08:58:28;;;;;;;8.65;6.18;;;;;;;35.01;nan;100435.78;5091986;27;20840;-78
2023/09/17 09:00:57;;;;;;;8.45;6.72;;;;;;;35.14;nan;100422.44;5131381;27;20034;-79
2023/09/17 09:03:25;;;;;;;8.93;6.53;;;;;;;34.52;nan;100435.41;5113420;27;20054;-78
2023/09/17 09:05:55;;;;;;;6.85;6.05;;;;;;;33.21;nan;100434.06;5092165;27;20143;-76
2023/09/17 09:08:21;;;;;;;9.25;6.80;;;;;;;32.93;nan;100428.38;5106597;27;20055;-78
2023/09/17 09:10:47;;;;;;;10.18;5.95;;;;;;;32.91;nan;100416.72;5092798;27;20043;-78
2023/09/17 09:13:12;;;;;;;10.02;7.30;;;;;;;33.54;nan;100409.47;5106868;27;20043;-78
2023/09/17 09:15:38;;;;;;;7.80;5.80;;;;;;;34.73;nan;100414.47;5107638;27;20412;-78
2023/09/17 09:18:03;;;;;;;10.05;7.07;;;;;;;34.94;nan;100414.63;5105606;27;20051;-79
2023/09/17 09:20:28;;;;;;;8.10;5.40;;;;;;;35.63;nan;100409.66;5101226;27;20374;-79
2023/09/17 09:22:54;;;;;;;6.03;5.15;;;;;;;36.45;nan;100383.81;5103061;27;20043;-79
2023/09/17 09:25:19;;;;;;;11.07;5.03;;;;;;;37.41;nan;100397.75;5102992;27;20057;-78
2023/09/17 09:27:45;;;;;;;7.05;5.38;;;;;;;37.51;nan;100391.41;5102291;27;20062;-78
2023/09/17 09:30:14;;;;;;;6.07;5.38;;;;;;;36.92;nan;100395.09;5120679;27;20069;-77
2023/09/17 09:32:41;;;;;;;8.07;5.28;;;;;;;36.24;nan;100409.66;5100731;27;20050;-77
2023/09/17 09:35:08;;;;;;;7.68;5.43;;;;;;;36.48;nan;100387.97;5084695;27;20047;-77
2023/09/17 09:37:35;;;;;;;6.93;5.10;;;;;;;36.64;nan;100403.72;5121065;27;20057;-76
2023/09/17 09:40:00;;;;;;;7.65;4.75;;;;;;;36.20;nan;100381.56;5102432;27;20035;-76
2023/09/17 09:42:26;;;;;;;10.13;7.40;;;;;;;35.81;nan;100389.09;5100446;27;20050;-74
2023/09/17 09:44:52;;;;;;;7.70;5.38;;;;;;;35.41;nan;100389.34;5102341;27;20046;-74
2023/09/17 09:47:20;;;;;;;8.07;5.20;;;;;;;34.42;nan;100394.53;5121730;27;20050;-75
2023/09/17 09:49:45;;;;;;;6.70;5.43;;;;;;;33.40;nan;100383.16;5116088;27;20039;-74
2023/09/17 09:52:15;;;;;;;5.90;4.97;;;;;;;33.13;nan;100370.84;5136776;27;20543;-74
2023/09/17 09:54:41;;;;;;;5.45;4.93;;;;;;;32.50;nan;100379.72;5139600;27;20039;-73
2023/09/17 09:57:07;;;;;;;6.05;5.35;;;;;;;31.68;nan;100389.44;5108151;27;20424;-75
2023/09/17 09:59:34;;;;;;;6.20;5.60;;;;;;;30.57;nan;100390.16;5085327;27;20039;-74
2023/09/17 10:02:02;;;;;;;8.07;5.40;;;;;;;30.13;nan;100406.69;5122107;27;20053;-74
2023/09/17 10:04:27;;;;;;;4.80;4.30;;;;;;;30.30;nan;100374.84;5101966;27;20038;-74
2023/09/17 10:06:52;;;;;;;7.30;4.28;;;;;;;30.00;nan;100371.81;5121482;27;20046;-77
2023/09/17 10:09:18;;;;;;;10.13;5.35;;;;;;;29.37;nan;100378.91;5087701;27;20046;-76
2023/09/17 10:11:43;;;;;;;5.28;4.78;;;;;;;28.18;nan;100367.84;5122437;27;20430;-77
2023/09/17 10:14:09;;;;;;;6.80;5.07;;;;;;;26.90;nan;100371.00;5102229;27;20046;-78
2023/09/17 10:16:37;;;;;;;5.80;4.50;;;;;;;25.58;nan;100388.59;5106759;27;20051;-76
2023/09/17 10:19:06;;;;;;;6.63;4.85;;;;;;;24.56;nan;100364.66;5119490;27;20041;-77
2023/09/17 10:21:38;;;;;;;6.18;4.80;;;;;;;23.80;nan;100373.59;5120417;27;20047;-80
2023/09/17 10:24:04;;;;;;;8.27;4.15;;;;;;;22.69;nan;100373.41;5128094;27;20035;-76
2023/09/17 10:26:37;;;;;;;5.13;4.13;;;;;;;22.37;nan;100376.97;5133304;27;20053;-76
2023/09/17 10:29:03;;;;;;;5.93;4.88;;;;;;;21.56;nan;100373.09;5092688;27;20481;-78
2023/09/17 10:31:30;;;;;;;6.10;4.50;;;;;;;20.71;nan;100398.28;5120437;27;20043;-79
2023/09/17 10:33:56;;;;;;;7.05;4.72;;;;;;;20.21;nan;100379.81;5100245;27;20084;-77
2023/09/17 10:36:22;;;;;;;5.75;4.28;;;;;;;19.94;nan;100378.88;5095948;27;20035;-78
2023/09/17 10:38:50;;;;;;;5.75;4.25;;;;;;;19.56;nan;100376.34;5105881;27;20023;-79
2023/09/17 10:41:17;;;;;;;9.50;4.82;;;;;;;19.49;nan;100367.13;5122408;27;20023;-77
2023/09/17 10:43:44;;;;;;;7.03;4.75;;;;;;;19.42;nan;100363.28;5109951;27;20065;-77
2023/09/17 10:46:13;;;;;;;8.10;4.90;;;;;;;19.33;nan;100374.97;5143770;27;20049;-78
2023/09/17 10:48:40;;;;;;;6.95;4.78;;;;;;;19.27;nan;100354.81;5137776;27;20027;-79
2023/09/17 10:51:07;;;;;;;9.27;5.00;;;;;;;19.02;nan;100368.97;5121419;27;20049;-75
2023/09/17 10:53:32;;;;;;;7.50;4.45;;;;;;;18.94;nan;100350.78;5138477;27;20043;-77
2023/09/17 10:56:08;;;;;;;5.32;4.13;;;;;;;18.96;nan;100356.88;5124220;27;20062;-78
2023/09/17 10:58:42;;;;;;;10.50;4.75;;;;;;;18.73;nan;100364.50;5123077;27;20022;-79
2023/09/17 11:01:11;;;;;;;6.38;4.43;;;;;;;18.37;nan;100355.22;5138478;27;20054;-74
2023/09/17 11:03:40;;;;;;;7.18;4.78;;;;;;;18.34;nan;100347.41;5113512;27;20038;-75
2023/09/17 11:06:14;;;;;;;7.65;4.80;;;;;;;18.23;nan;100350.25;5124848;27;20050;-74
2023/09/17 11:08:42;;;;;;;6.43;4.75;;;;;;;18.22;nan;100355.78;5106558;27;20042;-75
2023/09/17 11:11:08;;;;;;;7.18;4.60;;;;;;;18.32;nan;100338.59;5122540;27;20046;-72
2023/09/17 11:13:33;;;;;;;5.65;4.60;;;;;;;18.16;nan;100341.03;5125022;27;20053;-76
2023/09/17 11:16:00;;;;;;;7.50;4.53;;;;;;;18.11;nan;100336.03;5125769;27;20835;-74
2023/09/17 11:18:26;;;;;;;9.65;4.47;;;;;;;18.04;nan;100334.91;5105379;27;20059;-75
2023/09/17 11:21:08;;;;;;;5.03;3.92;;;;;;;18.04;nan;100334.06;5076038;27;20042;-76
2023/09/17 11:23:37;;;;;;;7.75;4.35;;;;;;;18.01;nan;100343.28;5128448;27;20034;-76
2023/09/17 11:26:02;;;;;;;6.53;4.47;;;;;;;18.02;nan;100353.06;5121687;27;20046;-74
2023/09/17 11:28:36;;;;;;;5.70;4.05;;;;;;;18.04;nan;100344.84;5121892;27;20043;-75
2023/09/17 11:31:02;;;;;;;9.52;4.90;;;;;;;18.00;nan;100354.19;5122039;27;20045;-76
2023/09/17 11:33:28;;;;;;;4.25;3.80;;;;;;;18.03;nan;100344.00;5119908;27;20050;-75
2023/09/17 11:35:55;;;;;;;6.93;3.65;;;;;;;18.01;nan;100345.13;5118025;27;20051;-77
2023/09/17 11:38:24;;;;;;;5.68;3.95;;;;;;;17.98;nan;100340.00;5120139;27;20366;-76